sensor_id;sensor_type;location;lat;lon;timestamp;P1;durP1;ratioP1;P2;durP2;ratioP2
45041;SDS011;30779;52.096;4.410;2022-12-18T00:01:20;95.15;;;35.00;;
45041;SDS011;30779;52.096;4.410;2022-12-18T00:04:22;98.40;;;35.55;;
45041;SDS011;30779;52.096;4.410;2022-12-18T00:07:24;99.40;;;34.20;;
45041;SDS011;30779;52.096;4.410;2022-12-18T00:10:25;88.72;;;34.38;;
45041;SDS011;30779;52.096;4.410;2022-12-18T00:13:26;101.88;;;35.47;;
45041;SDS011;30779;52.096;4.410;2022-12-18T00:16:28;104.20;;;36.60;;
45041;SDS011;30779;52.096;4.410;2022-12-18T00:19:35;100.78;;;37.20;;
45041;SDS011;30779;52.096;4.410;2022-12-18T00:22:36;83.80;;;35.13;;
45041;SDS011;30779;52.096;4.410;2022-12-18T00:25:37;90.28;;;35.65;;
45041;SDS011;30779;52.096;4.410;2022-12-18T00:28:38;90.82;;;36.28;;
45041;SDS011;30779;52.096;4.410;2022-12-18T00:31:39;97.28;;;34.78;;
45041;SDS011;30779;52.096;4.410;2022-12-18T00:34:41;92.03;;;35.22;;
45041;SDS011;30779;52.096;4.410;2022-12-18T00:37:42;96.47;;;35.92;;
45041;SDS011;30779;52.096;4.410;2022-12-18T00:40:43;82.28;;;33.78;;
45041;SDS011;30779;52.096;4.410;2022-12-18T00:43:44;82.85;;;32.97;;
45041;SDS011;30779;52.096;4.410;2022-12-18T00:46:46;80.40;;;34.70;;
45041;SDS011;30779;52.096;4.410;2022-12-18T00:49:50;88.45;;;34.20;;
45041;SDS011;30779;52.096;4.410;2022-12-18T00:55:52;86.75;;;33.67;;
45041;SDS011;30779;52.096;4.410;2022-12-18T00:58:53;82.55;;;31.92;;
45041;SDS011;30779;52.096;4.410;2022-12-18T01:01:54;81.32;;;32.55;;
45041;SDS011;30779;52.096;4.410;2022-12-18T01:04:55;72.72;;;31.90;;
45041;SDS011;30779;52.096;4.410;2022-12-18T01:07:56;80.38;;;30.95;;
45041;SDS011;30779;52.096;4.410;2022-12-18T01:10:57;87.38;;;33.08;;
45041;SDS011;30779;52.096;4.410;2022-12-18T01:14:01;87.43;;;31.55;;
45041;SDS011;30779;52.096;4.410;2022-12-18T01:20:04;84.38;;;29.50;;
45041;SDS011;30779;52.096;4.410;2022-12-18T01:23:05;90.07;;;33.13;;
45041;SDS011;30779;52.096;4.410;2022-12-18T01:26:10;83.47;;;33.25;;
45041;SDS011;30779;52.096;4.410;2022-12-18T01:29:11;79.25;;;32.97;;
45041;SDS011;30779;52.096;4.410;2022-12-18T01:32:14;82.03;;;30.67;;
45041;SDS011;30779;52.096;4.410;2022-12-18T01:35:15;68.55;;;29.42;;
45041;SDS011;30779;52.096;4.410;2022-12-18T01:38:16;86.28;;;32.88;;
45041;SDS011;30779;52.096;4.410;2022-12-18T01:41:18;86.53;;;33.35;;
45041;SDS011;30779;52.096;4.410;2022-12-18T01:47:43;78.00;;;28.25;;
45041;SDS011;30779;52.096;4.410;2022-12-18T01:50:45;76.85;;;30.85;;
45041;SDS011;30779;52.096;4.410;2022-12-18T01:53:46;86.32;;;29.25;;
45041;SDS011;30779;52.096;4.410;2022-12-18T01:56:48;82.60;;;33.20;;
45041;SDS011;30779;52.096;4.410;2022-12-18T01:59:49;87.60;;;32.90;;
45041;SDS011;30779;52.096;4.410;2022-12-18T02:02:51;78.70;;;30.48;;
45041;SDS011;30779;52.096;4.410;2022-12-18T02:12:05;83.47;;;31.10;;
45041;SDS011;30779;52.096;4.410;2022-12-18T02:18:18;81.75;;;32.67;;
45041;SDS011;30779;52.096;4.410;2022-12-18T02:24:33;81.93;;;31.42;;
45041;SDS011;30779;52.096;4.410;2022-12-18T02:27:36;86.28;;;32.05;;
45041;SDS011;30779;52.096;4.410;2022-12-18T02:30:44;72.70;;;28.35;;
45041;SDS011;30779;52.096;4.410;2022-12-18T02:33:47;80.32;;;31.83;;
45041;SDS011;30779;52.096;4.410;2022-12-18T02:36:49;77.72;;;32.33;;
45041;SDS011;30779;52.096;4.410;2022-12-18T02:39:50;80.07;;;31.63;;
45041;SDS011;30779;52.096;4.410;2022-12-18T02:42:52;90.95;;;31.67;;
45041;SDS011;30779;52.096;4.410;2022-12-18T02:45:54;93.95;;;33.47;;
45041;SDS011;30779;52.096;4.410;2022-12-18T02:48:57;105.63;;;35.58;;
45041;SDS011;30779;52.096;4.410;2022-12-18T02:55:09;99.32;;;34.00;;
45041;SDS011;30779;52.096;4.410;2022-12-18T02:58:30;85.93;;;32.60;;
45041;SDS011;30779;52.096;4.410;2022-12-18T03:01:36;90.18;;;32.63;;
45041;SDS011;30779;52.096;4.410;2022-12-18T03:08:17;80.68;;;29.98;;
45041;SDS011;30779;52.096;4.410;2022-12-18T03:11:19;74.35;;;28.08;;
45041;SDS011;30779;52.096;4.410;2022-12-18T03:14:40;81.10;;;31.17;;
45041;SDS011;30779;52.096;4.410;2022-12-18T03:17:44;82.75;;;29.20;;
45041;SDS011;30779;52.096;4.410;2022-12-18T03:20:47;77.30;;;30.58;;
45041;SDS011;30779;52.096;4.410;2022-12-18T03:23:53;82.38;;;31.27;;
45041;SDS011;30779;52.096;4.410;2022-12-18T03:26:54;83.95;;;31.77;;
45041;SDS011;30779;52.096;4.410;2022-12-18T03:33:17;73.68;;;28.30;;
45041;SDS011;30779;52.096;4.410;2022-12-18T03:36:20;64.53;;;26.30;;
45041;SDS011;30779;52.096;4.410;2022-12-18T03:39:21;72.30;;;29.42;;
45041;SDS011;30779;52.096;4.410;2022-12-18T03:45:34;72.38;;;29.92;;
45041;SDS011;30779;52.096;4.410;2022-12-18T03:48:37;69.93;;;27.87;;
45041;SDS011;30779;52.096;4.410;2022-12-18T03:51:41;63.35;;;23.83;;
45041;SDS011;30779;52.096;4.410;2022-12-18T03:54:43;68.65;;;25.88;;
45041;SDS011;30779;52.096;4.410;2022-12-18T03:57:45;72.43;;;26.75;;
45041;SDS011;30779;52.096;4.410;2022-12-18T04:00:47;66.40;;;27.85;;
45041;SDS011;30779;52.096;4.410;2022-12-18T04:03:50;61.08;;;26.60;;
45041;SDS011;30779;52.096;4.410;2022-12-18T04:06:52;70.90;;;28.77;;
45041;SDS011;30779;52.096;4.410;2022-12-18T04:09:56;66.47;;;26.10;;
45041;SDS011;30779;52.096;4.410;2022-12-18T04:12:58;68.38;;;26.73;;
45041;SDS011;30779;52.096;4.410;2022-12-18T04:15:59;65.72;;;25.92;;
45041;SDS011;30779;52.096;4.410;2022-12-18T04:19:01;59.50;;;27.90;;
45041;SDS011;30779;52.096;4.410;2022-12-18T04:22:02;56.35;;;25.83;;
45041;SDS011;30779;52.096;4.410;2022-12-18T04:25:03;65.90;;;24.58;;
45041;SDS011;30779;52.096;4.410;2022-12-18T04:28:07;62.92;;;25.58;;
45041;SDS011;30779;52.096;4.410;2022-12-18T04:31:08;68.93;;;27.15;;
45041;SDS011;30779;52.096;4.410;2022-12-18T04:34:09;67.15;;;26.73;;
45041;SDS011;30779;52.096;4.410;2022-12-18T04:37:10;67.38;;;26.10;;
45041;SDS011;30779;52.096;4.410;2022-12-18T04:40:12;66.95;;;26.75;;
45041;SDS011;30779;52.096;4.410;2022-12-18T04:43:13;67.60;;;28.92;;
45041;SDS011;30779;52.096;4.410;2022-12-18T04:46:14;78.30;;;29.80;;
45041;SDS011;30779;52.096;4.410;2022-12-18T04:49:15;71.47;;;27.75;;
45041;SDS011;30779;52.096;4.410;2022-12-18T04:52:16;65.85;;;26.25;;
45041;SDS011;30779;52.096;4.410;2022-12-18T04:55:17;64.45;;;25.50;;
45041;SDS011;30779;52.096;4.410;2022-12-18T04:58:18;75.05;;;28.92;;
45041;SDS011;30779;52.096;4.410;2022-12-18T05:01:19;75.22;;;28.05;;
45041;SDS011;30779;52.096;4.410;2022-12-18T05:04:20;75.35;;;28.23;;
45041;SDS011;30779;52.096;4.410;2022-12-18T05:07:21;74.63;;;29.10;;
45041;SDS011;30779;52.096;4.410;2022-12-18T05:10:22;63.47;;;25.42;;
45041;SDS011;30779;52.096;4.410;2022-12-18T05:13:23;65.97;;;25.75;;
45041;SDS011;30779;52.096;4.410;2022-12-18T05:16:24;66.55;;;25.92;;
45041;SDS011;30779;52.096;4.410;2022-12-18T05:19:24;67.78;;;26.42;;
45041;SDS011;30779;52.096;4.410;2022-12-18T05:22:25;75.22;;;27.85;;
45041;SDS011;30779;52.096;4.410;2022-12-18T05:25:27;68.55;;;28.23;;
45041;SDS011;30779;52.096;4.410;2022-12-18T05:28:29;70.40;;;26.08;;
45041;SDS011;30779;52.096;4.410;2022-12-18T05:31:30;62.47;;;25.17;;
45041;SDS011;30779;52.096;4.410;2022-12-18T05:34:31;63.65;;;24.35;;
45041;SDS011;30779;52.096;4.410;2022-12-18T05:37:33;53.50;;;24.92;;
45041;SDS011;30779;52.096;4.410;2022-12-18T05:40:37;63.05;;;25.00;;
45041;SDS011;30779;52.096;4.410;2022-12-18T05:43:41;60.10;;;24.88;;
45041;SDS011;30779;52.096;4.410;2022-12-18T05:46:42;60.88;;;25.52;;
45041;SDS011;30779;52.096;4.410;2022-12-18T05:49:43;56.08;;;23.52;;
45041;SDS011;30779;52.096;4.410;2022-12-18T05:52:47;53.28;;;24.50;;
45041;SDS011;30779;52.096;4.410;2022-12-18T05:55:48;55.53;;;24.63;;
45041;SDS011;30779;52.096;4.410;2022-12-18T05:58:53;60.70;;;25.52;;
45041;SDS011;30779;52.096;4.410;2022-12-18T06:01:54;50.28;;;21.73;;
45041;SDS011;30779;52.096;4.410;2022-12-18T06:04:55;51.03;;;23.00;;
45041;SDS011;30779;52.096;4.410;2022-12-18T06:07:56;51.72;;;21.90;;
45041;SDS011;30779;52.096;4.410;2022-12-18T06:10:57;52.47;;;24.00;;
45041;SDS011;30779;52.096;4.410;2022-12-18T06:14:00;57.50;;;25.55;;
45041;SDS011;30779;52.096;4.410;2022-12-18T06:17:01;53.33;;;21.55;;
45041;SDS011;30779;52.096;4.410;2022-12-18T06:20:03;52.17;;;24.20;;
45041;SDS011;30779;52.096;4.410;2022-12-18T06:23:04;55.80;;;23.05;;
45041;SDS011;30779;52.096;4.410;2022-12-18T06:26:06;41.72;;;20.92;;
45041;SDS011;30779;52.096;4.410;2022-12-18T06:29:07;53.20;;;21.70;;
45041;SDS011;30779;52.096;4.410;2022-12-18T06:32:08;43.13;;;21.20;;
45041;SDS011;30779;52.096;4.410;2022-12-18T06:35:09;52.97;;;21.42;;
45041;SDS011;30779;52.096;4.410;2022-12-18T06:38:10;44.58;;;21.52;;
45041;SDS011;30779;52.096;4.410;2022-12-18T06:41:14;47.72;;;21.55;;
45041;SDS011;30779;52.096;4.410;2022-12-18T06:44:16;44.80;;;21.33;;
45041;SDS011;30779;52.096;4.410;2022-12-18T06:47:17;41.58;;;20.33;;
45041;SDS011;30779;52.096;4.410;2022-12-18T06:50:18;50.97;;;22.58;;
45041;SDS011;30779;52.096;4.410;2022-12-18T06:53:19;48.25;;;21.83;;
45041;SDS011;30779;52.096;4.410;2022-12-18T06:56:20;48.95;;;21.48;;
45041;SDS011;30779;52.096;4.410;2022-12-18T06:59:21;47.08;;;21.13;;
45041;SDS011;30779;52.096;4.410;2022-12-18T07:02:22;45.40;;;20.63;;
45041;SDS011;30779;52.096;4.410;2022-12-18T07:05:23;44.10;;;20.58;;
45041;SDS011;30779;52.096;4.410;2022-12-18T07:08:24;45.90;;;21.80;;
45041;SDS011;30779;52.096;4.410;2022-12-18T07:11:25;37.78;;;19.08;;
45041;SDS011;30779;52.096;4.410;2022-12-18T07:14:26;40.22;;;20.42;;
45041;SDS011;30779;52.096;4.410;2022-12-18T07:17:27;45.25;;;21.63;;
45041;SDS011;30779;52.096;4.410;2022-12-18T07:20:29;45.95;;;22.40;;
45041;SDS011;30779;52.096;4.410;2022-12-18T07:23:31;42.75;;;21.13;;
45041;SDS011;30779;52.096;4.410;2022-12-18T07:26:32;38.53;;;19.52;;
45041;SDS011;30779;52.096;4.410;2022-12-18T07:29:33;39.42;;;19.88;;
45041;SDS011;30779;52.096;4.410;2022-12-18T07:32:34;35.40;;;17.90;;
45041;SDS011;30779;52.096;4.410;2022-12-18T07:35:35;37.13;;;18.55;;
45041;SDS011;30779;52.096;4.410;2022-12-18T07:38:36;32.72;;;17.67;;
45041;SDS011;30779;52.096;4.410;2022-12-18T07:41:38;35.55;;;17.55;;
45041;SDS011;30779;52.096;4.410;2022-12-18T07:44:42;29.38;;;16.20;;
45041;SDS011;30779;52.096;4.410;2022-12-18T07:47:43;32.53;;;16.92;;
45041;SDS011;30779;52.096;4.410;2022-12-18T07:50:44;31.13;;;16.60;;
45041;SDS011;30779;52.096;4.410;2022-12-18T07:53:45;28.92;;;15.55;;
45041;SDS011;30779;52.096;4.410;2022-12-18T07:56:46;27.40;;;14.65;;
45041;SDS011;30779;52.096;4.410;2022-12-18T07:59:47;30.73;;;16.33;;
45041;SDS011;30779;52.096;4.410;2022-12-18T08:02:48;29.50;;;14.80;;
45041;SDS011;30779;52.096;4.410;2022-12-18T08:05:49;33.85;;;16.88;;
45041;SDS011;30779;52.096;4.410;2022-12-18T08:08:54;32.05;;;15.52;;
45041;SDS011;30779;52.096;4.410;2022-12-18T08:11:55;30.73;;;15.65;;
45041;SDS011;30779;52.096;4.410;2022-12-18T08:14:56;27.85;;;15.38;;
45041;SDS011;30779;52.096;4.410;2022-12-18T08:17:57;29.75;;;15.35;;
45041;SDS011;30779;52.096;4.410;2022-12-18T08:21:06;29.38;;;14.98;;
45041;SDS011;30779;52.096;4.410;2022-12-18T08:24:08;26.95;;;14.00;;
45041;SDS011;30779;52.096;4.410;2022-12-18T08:27:09;32.90;;;15.85;;
45041;SDS011;30779;52.096;4.410;2022-12-18T08:30:10;25.23;;;15.13;;
45041;SDS011;30779;52.096;4.410;2022-12-18T08:33:11;32.22;;;15.70;;
45041;SDS011;30779;52.096;4.410;2022-12-18T08:36:12;28.63;;;14.55;;
45041;SDS011;30779;52.096;4.410;2022-12-18T08:39:13;26.08;;;15.38;;
45041;SDS011;30779;52.096;4.410;2022-12-18T08:42:14;22.73;;;13.57;;
45041;SDS011;30779;52.096;4.410;2022-12-18T08:45:37;28.15;;;14.57;;
45041;SDS011;30779;52.096;4.410;2022-12-18T08:51:39;28.38;;;15.88;;
45041;SDS011;30779;52.096;4.410;2022-12-18T08:54:40;28.63;;;14.35;;
45041;SDS011;30779;52.096;4.410;2022-12-18T08:57:41;29.50;;;15.32;;
45041;SDS011;30779;52.096;4.410;2022-12-18T09:00:43;26.63;;;14.95;;
45041;SDS011;30779;52.096;4.410;2022-12-18T09:03:47;27.30;;;16.52;;
45041;SDS011;30779;52.096;4.410;2022-12-18T09:06:48;23.17;;;13.80;;
45041;SDS011;30779;52.096;4.410;2022-12-18T09:09:49;29.30;;;17.60;;
45041;SDS011;30779;52.096;4.410;2022-12-18T09:12:50;25.88;;;14.35;;
45041;SDS011;30779;52.096;4.410;2022-12-18T09:15:52;25.48;;;14.10;;
45041;SDS011;30779;52.096;4.410;2022-12-18T09:18:54;27.80;;;14.80;;
45041;SDS011;30779;52.096;4.410;2022-12-18T09:21:59;30.48;;;16.75;;
45041;SDS011;30779;52.096;4.410;2022-12-18T09:25:00;26.70;;;14.00;;
45041;SDS011;30779;52.096;4.410;2022-12-18T09:28:05;25.90;;;16.00;;
45041;SDS011;30779;52.096;4.410;2022-12-18T09:31:07;25.25;;;14.32;;
45041;SDS011;30779;52.096;4.410;2022-12-18T09:34:08;23.77;;;14.18;;
45041;SDS011;30779;52.096;4.410;2022-12-18T09:37:09;28.55;;;13.95;;
45041;SDS011;30779;52.096;4.410;2022-12-18T09:40:20;24.52;;;13.80;;
45041;SDS011;30779;52.096;4.410;2022-12-18T09:43:26;25.20;;;14.15;;
45041;SDS011;30779;52.096;4.410;2022-12-18T09:46:36;24.58;;;15.10;;
45041;SDS011;30779;52.096;4.410;2022-12-18T09:49:52;24.42;;;14.82;;
45041;SDS011;30779;52.096;4.410;2022-12-18T09:52:55;23.80;;;12.10;;
45041;SDS011;30779;52.096;4.410;2022-12-18T09:55:57;20.55;;;13.80;;
45041;SDS011;30779;52.096;4.410;2022-12-18T09:58:59;24.38;;;13.85;;
45041;SDS011;30779;52.096;4.410;2022-12-18T10:02:01;25.58;;;14.57;;
45041;SDS011;30779;52.096;4.410;2022-12-18T10:05:20;27.63;;;14.85;;
45041;SDS011;30779;52.096;4.410;2022-12-18T10:08:28;24.02;;;14.18;;
45041;SDS011;30779;52.096;4.410;2022-12-18T10:14:56;25.52;;;14.27;;
45041;SDS011;30779;52.096;4.410;2022-12-18T10:18:07;26.02;;;14.20;;
45041;SDS011;30779;52.096;4.410;2022-12-18T10:21:15;24.50;;;14.60;;
45041;SDS011;30779;52.096;4.410;2022-12-18T10:24:28;35.83;;;16.42;;
45041;SDS011;30779;52.096;4.410;2022-12-18T10:27:30;31.70;;;17.80;;
45041;SDS011;30779;52.096;4.410;2022-12-18T10:30:31;32.33;;;17.45;;
45041;SDS011;30779;52.096;4.410;2022-12-18T10:33:33;33.55;;;17.23;;
45041;SDS011;30779;52.096;4.410;2022-12-18T10:36:34;34.33;;;17.83;;
45041;SDS011;30779;52.096;4.410;2022-12-18T10:39:35;25.65;;;15.23;;
45041;SDS011;30779;52.096;4.410;2022-12-18T10:42:36;28.08;;;14.38;;
45041;SDS011;30779;52.096;4.410;2022-12-18T10:45:41;24.60;;;14.02;;
45041;SDS011;30779;52.096;4.410;2022-12-18T10:52:14;28.30;;;14.90;;
45041;SDS011;30779;52.096;4.410;2022-12-18T10:55:16;24.30;;;15.00;;
45041;SDS011;30779;52.096;4.410;2022-12-18T11:01:25;23.08;;;13.48;;
45041;SDS011;30779;52.096;4.410;2022-12-18T11:04:27;23.05;;;12.75;;
45041;SDS011;30779;52.096;4.410;2022-12-18T11:07:46;21.27;;;12.70;;
45041;SDS011;30779;52.096;4.410;2022-12-18T11:10:48;27.35;;;16.40;;
45041;SDS011;30779;52.096;4.410;2022-12-18T11:13:58;25.58;;;13.75;;
45041;SDS011;30779;52.096;4.410;2022-12-18T11:17:02;22.60;;;14.05;;
45041;SDS011;30779;52.096;4.410;2022-12-18T11:20:04;26.20;;;14.05;;
45041;SDS011;30779;52.096;4.410;2022-12-18T11:23:10;23.37;;;13.87;;
45041;SDS011;30779;52.096;4.410;2022-12-18T11:26:12;25.05;;;14.40;;
45041;SDS011;30779;52.096;4.410;2022-12-18T11:29:19;22.13;;;12.95;;
45041;SDS011;30779;52.096;4.410;2022-12-18T11:32:34;19.77;;;13.30;;
45041;SDS011;30779;52.096;4.410;2022-12-18T11:35:55;20.98;;;13.05;;
45041;SDS011;30779;52.096;4.410;2022-12-18T11:38:57;20.52;;;13.07;;
45041;SDS011;30779;52.096;4.410;2022-12-18T11:42:09;21.88;;;13.25;;
45041;SDS011;30779;52.096;4.410;2022-12-18T11:45:31;20.35;;;11.90;;
45041;SDS011;30779;52.096;4.410;2022-12-18T11:48:52;24.08;;;12.77;;
45041;SDS011;30779;52.096;4.410;2022-12-18T11:55:25;20.63;;;12.80;;
45041;SDS011;30779;52.096;4.410;2022-12-18T11:58:47;22.55;;;11.95;;
45041;SDS011;30779;52.096;4.410;2022-12-18T12:01:51;21.02;;;14.30;;
45041;SDS011;30779;52.096;4.410;2022-12-18T12:08:02;26.48;;;13.65;;
45041;SDS011;30779;52.096;4.410;2022-12-18T12:11:26;24.38;;;13.98;;
45041;SDS011;30779;52.096;4.410;2022-12-18T12:24:30;20.45;;;13.80;;
45041;SDS011;30779;52.096;4.410;2022-12-18T12:27:54;24.33;;;14.52;;
45041;SDS011;30779;52.096;4.410;2022-12-18T12:34:19;20.58;;;14.02;;
45041;SDS011;30779;52.096;4.410;2022-12-18T12:40:27;23.40;;;16.05;;
45041;SDS011;30779;52.096;4.410;2022-12-18T12:46:33;22.10;;;14.83;;
45041;SDS011;30779;52.096;4.410;2022-12-18T12:52:41;22.80;;;14.23;;
45041;SDS011;30779;52.096;4.410;2022-12-18T12:55:42;32.90;;;16.58;;
45041;SDS011;30779;52.096;4.410;2022-12-18T13:02:04;28.30;;;16.65;;
45041;SDS011;30779;52.096;4.410;2022-12-18T13:14:49;25.38;;;14.45;;
45041;SDS011;30779;52.096;4.410;2022-12-18T13:21:15;24.63;;;14.00;;
45041;SDS011;30779;52.096;4.410;2022-12-18T13:24:24;22.13;;;14.77;;
45041;SDS011;30779;52.096;4.410;2022-12-18T13:30:52;22.73;;;14.45;;
45041;SDS011;30779;52.096;4.410;2022-12-18T13:33:53;20.85;;;13.60;;
45041;SDS011;30779;52.096;4.410;2022-12-18T13:46:50;23.75;;;14.00;;
45041;SDS011;30779;52.096;4.410;2022-12-18T13:49:52;23.80;;;14.70;;
45041;SDS011;30779;52.096;4.410;2022-12-18T13:52:53;25.92;;;15.00;;
45041;SDS011;30779;52.096;4.410;2022-12-18T13:55:54;24.73;;;15.48;;
45041;SDS011;30779;52.096;4.410;2022-12-18T14:02:15;23.17;;;14.43;;
45041;SDS011;30779;52.096;4.410;2022-12-18T14:08:28;23.92;;;15.25;;
45041;SDS011;30779;52.096;4.410;2022-12-18T14:14:31;25.75;;;15.65;;
45041;SDS011;30779;52.096;4.410;2022-12-18T14:17:32;22.58;;;14.45;;
45041;SDS011;30779;52.096;4.410;2022-12-18T14:20:34;22.02;;;13.57;;
45041;SDS011;30779;52.096;4.410;2022-12-18T14:26:36;23.63;;;14.48;;
45041;SDS011;30779;52.096;4.410;2022-12-18T14:29:40;27.45;;;16.45;;
45041;SDS011;30779;52.096;4.410;2022-12-18T14:36:01;22.70;;;14.38;;
45041;SDS011;30779;52.096;4.410;2022-12-18T14:39:02;25.15;;;14.27;;
45041;SDS011;30779;52.096;4.410;2022-12-18T14:42:03;24.50;;;14.73;;
45041;SDS011;30779;52.096;4.410;2022-12-18T14:48:40;21.52;;;13.70;;
45041;SDS011;30779;52.096;4.410;2022-12-18T14:51:41;22.60;;;13.82;;
45041;SDS011;30779;52.096;4.410;2022-12-18T14:54:47;23.30;;;13.25;;
45041;SDS011;30779;52.096;4.410;2022-12-18T14:57:52;25.38;;;14.57;;
45041;SDS011;30779;52.096;4.410;2022-12-18T15:00:54;25.55;;;14.57;;
45041;SDS011;30779;52.096;4.410;2022-12-18T15:03:56;23.52;;;13.43;;
45041;SDS011;30779;52.096;4.410;2022-12-18T15:07:12;27.98;;;14.35;;
45041;SDS011;30779;52.096;4.410;2022-12-18T15:13:20;25.30;;;15.88;;
45041;SDS011;30779;52.096;4.410;2022-12-18T15:16:22;23.92;;;15.52;;
45041;SDS011;30779;52.096;4.410;2022-12-18T15:19:31;20.83;;;14.45;;
45041;SDS011;30779;52.096;4.410;2022-12-18T15:22:33;24.90;;;14.93;;
45041;SDS011;30779;52.096;4.410;2022-12-18T15:25:35;27.88;;;13.93;;
45041;SDS011;30779;52.096;4.410;2022-12-18T15:28:38;23.65;;;13.10;;
45041;SDS011;30779;52.096;4.410;2022-12-18T15:31:39;27.83;;;15.68;;
45041;SDS011;30779;52.096;4.410;2022-12-18T15:34:40;22.27;;;12.13;;
45041;SDS011;30779;52.096;4.410;2022-12-18T15:37:42;24.80;;;14.80;;
45041;SDS011;30779;52.096;4.410;2022-12-18T15:40:43;23.85;;;15.27;;
45041;SDS011;30779;52.096;4.410;2022-12-18T15:43:44;24.88;;;15.57;;
45041;SDS011;30779;52.096;4.410;2022-12-18T15:46:45;26.20;;;16.05;;
45041;SDS011;30779;52.096;4.410;2022-12-18T15:49:46;25.80;;;14.00;;
45041;SDS011;30779;52.096;4.410;2022-12-18T15:52:48;22.13;;;13.77;;
45041;SDS011;30779;52.096;4.410;2022-12-18T15:55:50;25.27;;;15.38;;
45041;SDS011;30779;52.096;4.410;2022-12-18T15:59:11;24.10;;;15.10;;
45041;SDS011;30779;52.096;4.410;2022-12-18T16:02:13;26.75;;;14.02;;
45041;SDS011;30779;52.096;4.410;2022-12-18T16:05:17;23.73;;;16.00;;
45041;SDS011;30779;52.096;4.410;2022-12-18T16:08:18;24.13;;;15.02;;
45041;SDS011;30779;52.096;4.410;2022-12-18T16:11:26;31.38;;;17.30;;
45041;SDS011;30779;52.096;4.410;2022-12-18T16:14:42;25.67;;;15.57;;
45041;SDS011;30779;52.096;4.410;2022-12-18T16:17:44;27.38;;;16.33;;
45041;SDS011;30779;52.096;4.410;2022-12-18T16:20:45;27.67;;;15.85;;
45041;SDS011;30779;52.096;4.410;2022-12-18T16:23:46;25.63;;;16.13;;
45041;SDS011;30779;52.096;4.410;2022-12-18T16:26:47;27.42;;;16.27;;
45041;SDS011;30779;52.096;4.410;2022-12-18T16:29:48;21.80;;;13.90;;
45041;SDS011;30779;52.096;4.410;2022-12-18T16:32:49;28.85;;;17.20;;
45041;SDS011;30779;52.096;4.410;2022-12-18T16:35:51;21.02;;;13.20;;
45041;SDS011;30779;52.096;4.410;2022-12-18T16:38:52;22.55;;;13.68;;
45041;SDS011;30779;52.096;4.410;2022-12-18T16:41:53;20.88;;;12.85;;
45041;SDS011;30779;52.096;4.410;2022-12-18T16:44:54;25.55;;;13.93;;
45041;SDS011;30779;52.096;4.410;2022-12-18T16:47:55;19.30;;;11.55;;
45041;SDS011;30779;52.096;4.410;2022-12-18T16:50:59;19.38;;;12.70;;
45041;SDS011;30779;52.096;4.410;2022-12-18T16:54:01;18.02;;;12.00;;
45041;SDS011;30779;52.096;4.410;2022-12-18T16:57:02;16.63;;;10.38;;
45041;SDS011;30779;52.096;4.410;2022-12-18T17:00:04;19.33;;;11.40;;
45041;SDS011;30779;52.096;4.410;2022-12-18T17:03:05;19.60;;;11.02;;
45041;SDS011;30779;52.096;4.410;2022-12-18T17:06:06;22.42;;;12.48;;
45041;SDS011;30779;52.096;4.410;2022-12-18T17:09:10;19.77;;;13.52;;
45041;SDS011;30779;52.096;4.410;2022-12-18T17:12:11;22.83;;;12.80;;
45041;SDS011;30779;52.096;4.410;2022-12-18T17:15:12;23.25;;;14.45;;
45041;SDS011;30779;52.096;4.410;2022-12-18T17:18:13;24.17;;;16.30;;
45041;SDS011;30779;52.096;4.410;2022-12-18T17:21:14;23.13;;;13.40;;
45041;SDS011;30779;52.096;4.410;2022-12-18T17:24:16;24.33;;;14.10;;
45041;SDS011;30779;52.096;4.410;2022-12-18T17:27:17;23.50;;;14.88;;
45041;SDS011;30779;52.096;4.410;2022-12-18T17:30:18;25.95;;;14.65;;
45041;SDS011;30779;52.096;4.410;2022-12-18T17:33:19;28.02;;;15.57;;
45041;SDS011;30779;52.096;4.410;2022-12-18T17:36:20;28.63;;;15.63;;
45041;SDS011;30779;52.096;4.410;2022-12-18T17:39:21;24.33;;;15.48;;
45041;SDS011;30779;52.096;4.410;2022-12-18T17:42:23;26.92;;;16.52;;
45041;SDS011;30779;52.096;4.410;2022-12-18T17:45:25;28.65;;;16.55;;
45041;SDS011;30779;52.096;4.410;2022-12-18T17:48:26;29.13;;;17.15;;
45041;SDS011;30779;52.096;4.410;2022-12-18T17:51:27;22.90;;;13.85;;
45041;SDS011;30779;52.096;4.410;2022-12-18T17:54:29;24.70;;;15.23;;
45041;SDS011;30779;52.096;4.410;2022-12-18T17:57:30;25.90;;;15.80;;
45041;SDS011;30779;52.096;4.410;2022-12-18T18:00:31;21.33;;;13.82;;
45041;SDS011;30779;52.096;4.410;2022-12-18T18:03:32;25.60;;;15.13;;
45041;SDS011;30779;52.096;4.410;2022-12-18T18:06:33;27.40;;;17.27;;
45041;SDS011;30779;52.096;4.410;2022-12-18T18:09:34;27.52;;;14.52;;
45041;SDS011;30779;52.096;4.410;2022-12-18T18:12:35;25.95;;;16.25;;
45041;SDS011;30779;52.096;4.410;2022-12-18T18:15:55;26.00;;;14.88;;
45041;SDS011;30779;52.096;4.410;2022-12-18T18:18:57;27.20;;;15.07;;
45041;SDS011;30779;52.096;4.410;2022-12-18T18:21:58;30.50;;;17.30;;
45041;SDS011;30779;52.096;4.410;2022-12-18T18:25:00;29.50;;;15.95;;
45041;SDS011;30779;52.096;4.410;2022-12-18T18:28:02;24.70;;;14.75;;
45041;SDS011;30779;52.096;4.410;2022-12-18T18:31:07;34.25;;;18.90;;
45041;SDS011;30779;52.096;4.410;2022-12-18T18:34:19;23.85;;;15.32;;
45041;SDS011;30779;52.096;4.410;2022-12-18T18:37:20;26.85;;;16.27;;
45041;SDS011;30779;52.096;4.410;2022-12-18T18:40:21;25.67;;;15.88;;
45041;SDS011;30779;52.096;4.410;2022-12-18T18:43:22;23.42;;;14.70;;
45041;SDS011;30779;52.096;4.410;2022-12-18T18:46:24;32.13;;;18.77;;
45041;SDS011;30779;52.096;4.410;2022-12-18T18:49:25;26.63;;;16.48;;
45041;SDS011;30779;52.096;4.410;2022-12-18T18:52:27;31.38;;;17.90;;
45041;SDS011;30779;52.096;4.410;2022-12-18T18:55:28;29.98;;;17.10;;
45041;SDS011;30779;52.096;4.410;2022-12-18T18:58:29;29.25;;;16.50;;
45041;SDS011;30779;52.096;4.410;2022-12-18T19:01:30;25.75;;;17.08;;
45041;SDS011;30779;52.096;4.410;2022-12-18T19:04:32;28.25;;;16.35;;
45041;SDS011;30779;52.096;4.410;2022-12-18T19:07:33;28.95;;;17.50;;
45041;SDS011;30779;52.096;4.410;2022-12-18T19:10:37;28.50;;;17.08;;
45041;SDS011;30779;52.096;4.410;2022-12-18T19:13:39;35.45;;;19.30;;
45041;SDS011;30779;52.096;4.410;2022-12-18T19:16:40;25.45;;;13.98;;
45041;SDS011;30779;52.096;4.410;2022-12-18T19:19:42;26.13;;;16.45;;
45041;SDS011;30779;52.096;4.410;2022-12-18T19:22:43;28.58;;;18.45;;
45041;SDS011;30779;52.096;4.410;2022-12-18T19:25:47;29.67;;;17.10;;
45041;SDS011;30779;52.096;4.410;2022-12-18T19:28:48;31.20;;;18.23;;
45041;SDS011;30779;52.096;4.410;2022-12-18T19:31:49;34.75;;;18.08;;
45041;SDS011;30779;52.096;4.410;2022-12-18T19:34:50;31.95;;;17.05;;
45041;SDS011;30779;52.096;4.410;2022-12-18T19:37:52;33.35;;;18.90;;
45041;SDS011;30779;52.096;4.410;2022-12-18T19:40:53;31.17;;;17.55;;
45041;SDS011;30779;52.096;4.410;2022-12-18T19:43:54;31.00;;;16.42;;
45041;SDS011;30779;52.096;4.410;2022-12-18T19:46:55;33.13;;;19.20;;
45041;SDS011;30779;52.096;4.410;2022-12-18T19:49:56;31.42;;;18.52;;
45041;SDS011;30779;52.096;4.410;2022-12-18T19:52:57;30.77;;;17.95;;
45041;SDS011;30779;52.096;4.410;2022-12-18T19:56:03;35.80;;;19.65;;
45041;SDS011;30779;52.096;4.410;2022-12-18T19:59:04;27.10;;;17.00;;